Fremont, NE

5:13 AM CST on December 12, 2019 (GMT -0600)
Fremont Municipal

Weather History for KFET - November, 2019

Change the Weather History Date:

Sunday, November 17, 2019

  Actual Average Record
Temperature  
Mean Temperature 42 °F -  
Max Temperature 52 °F 51 °F 72 °F (1953)
Min Temperature 31 °F 29 °F 2 °F (1959)
Degree Days  
Heating Degree Days 22    
Moisture  
Dew Point 37 °F    
Average Humidity 79    
Maximum Humidity 93    
Minimum Humidity 55    
Precipitation  
Precipitation 0.00 in - - ()
Sea Level Pressure  
Sea Level Pressure 29.97 in    
Wind  
Wind Speed 7 mph ()    
Max Wind Speed 15 mph    
Max Gust Speed 20 mph    
Visibility 9.8 miles    
Events      
Averages and records for this station are not official NWS values.
T = Trace of Precipitation, MM = Missing Value Source: Averaged Metar Reports

Daily Weather History Graph

Daily Weather History Graph

Search for Another Location

Airport or City:

Astronomy

Nov. 17, 2019 Rise Set
Actual Time 7:16 AM CST 5:04 PM CST
Civil Twilight 6:46 AM CST 5:34 PM CST
Nautical Twilight 6:13 AM CST 6:08 PM CST
Astronomical Twilight 5:40 AM CST 6:41 PM CST
Moon 9:41 PM CST (11/17) 12:04 PM CST (11/17)
Length of Visible Light 10h 47m
Length of Day
9h 48m
Waning Gibbous, 73% of the Moon is Illuminated
Nov 17
Waning Gibbous
Nov 19
Last Quarter
Nov 26
New
Dec 4
First Quarter
Dec 11
Full

Hourly Weather History & Observations

Time (CST) Temp. Windchill Dew Point Humidity Pressure Visibility Wind Dir Wind Speed Gust Speed Precip Events Conditions
12:15 AM 46.2 °F 41.7 °F 38.5 °F 74% 29.99 in 10.0 mi NW 9.2 mph - N/A   Clear
12:35 AM 45.7 °F 41.0 °F 38.8 °F 77% 29.99 in 10.0 mi NW 9.2 mph - N/A   Clear
12:55 AM 44.6 °F 39.7 °F 38.7 °F 80% 30.01 in 10.0 mi WNW 9.2 mph - N/A   Clear
1:15 AM 43.5 °F 38.9 °F 38.7 °F 83% 30.00 in 10.0 mi WNW 8.1 mph - N/A   Scattered Clouds
1:35 AM 42.1 °F 38.4 °F 38.3 °F 86% 30.00 in 10.0 mi West 5.8 mph - N/A   Overcast
1:55 AM 41.9 °F 37.5 °F 37.9 °F 86% 30.00 in 10.0 mi West 6.9 mph - N/A   Overcast
2:15 AM 41.9 °F 36.9 °F 37.8 °F 85% 30.01 in 10.0 mi West 8.1 mph - N/A   Overcast
2:35 AM 42.8 °F 38.6 °F 38.5 °F 85% 30.01 in 10.0 mi West 6.9 mph - N/A   Overcast
2:55 AM 43.3 °F 39.9 °F 39.2 °F 85% 30.00 in 10.0 mi WNW 5.8 mph - N/A   Overcast
3:15 AM 43.5 °F 38.3 °F 39.4 °F 85% 30.00 in 10.0 mi West 9.2 mph - N/A   Overcast
3:35 AM 43.3 °F 38.1 °F 39.4 °F 86% 30.00 in 10.0 mi WNW 9.2 mph - N/A   Overcast
3:55 AM 43.9 °F 39.3 °F 40.1 °F 87% 30.00 in 10.0 mi WNW 8.1 mph - N/A   Overcast
4:15 AM 44.2 °F 38.8 °F 40.3 °F 86% 30.00 in 10.0 mi WNW 10.4 mph - N/A   Overcast
4:35 AM 44.8 °F 39.9 °F 40.1 °F 84% 30.01 in 10.0 mi WNW 9.2 mph 17.3 mph N/A   Overcast
4:55 AM 44.8 °F 39.9 °F 39.6 °F 82% 30.01 in 10.0 mi WNW 9.2 mph - N/A   Overcast
5:15 AM 44.1 °F 39.0 °F 39.0 °F 82% 30.01 in 10.0 mi West 9.2 mph - N/A   Overcast
5:35 AM 43.2 °F 38.4 °F 38.5 °F 84% 30.02 in 10.0 mi West 8.1 mph - N/A   Overcast
5:55 AM 43.0 °F 38.2 °F 38.3 °F 84% 30.01 in 10.0 mi West 8.1 mph - N/A   Overcast
6:15 AM 43.0 °F 38.2 °F 38.5 °F 84% 30.01 in 10.0 mi West 8.1 mph - N/A   Overcast
6:35 AM 42.8 °F 39.3 °F 38.5 °F 85% 30.01 in 10.0 mi West 5.8 mph - N/A   Overcast
6:55 AM 42.8 °F 39.3 °F 38.7 °F 85% 30.01 in 10.0 mi WNW 5.8 mph - N/A   Overcast
7:15 AM 42.8 °F 38.6 °F 38.7 °F 85% 30.01 in 10.0 mi West 6.9 mph - N/A   Overcast
7:35 AM 42.4 °F 38.1 °F 38.5 °F 86% 30.02 in 10.0 mi West 6.9 mph - N/A   Overcast
7:55 AM 42.8 °F 38.6 °F 38.3 °F 84% 30.02 in 10.0 mi West 6.9 mph - N/A   Overcast
8:35 AM 43.3 °F 38.1 °F 38.5 °F 83% 30.02 in 10.0 mi West 9.2 mph - N/A   Overcast
8:55 AM 44.1 °F 38.1 °F 38.5 °F 81% 30.03 in 10.0 mi West 11.5 mph - N/A   Overcast
9:15 AM 44.6 °F 39.2 °F 38.7 °F 80% 30.03 in 10.0 mi West 10.4 mph - N/A   Overcast
9:35 AM 45.5 °F 40.3 °F 39.0 °F 78% 30.03 in 10.0 mi West 10.4 mph - N/A   Overcast
9:55 AM 46.4 °F 40.1 °F 38.8 °F 75% 30.03 in 10.0 mi WNW 15.0 mph - N/A   Overcast
10:15 AM 46.8 °F - 38.5 °F 73% 30.03 in 10.0 mi WNW 10.4 mph - N/A   Overcast
10:35 AM 48.0 °F - 38.7 °F 70% 30.02 in 10.0 mi WNW 10.4 mph 17.3 mph N/A   Mostly Cloudy
10:55 AM 49.1 °F - 38.5 °F 67% 30.02 in 10.0 mi WNW 12.7 mph - N/A   Scattered Clouds
11:15 AM 49.8 °F - 38.3 °F 65% 30.01 in 10.0 mi WNW 13.8 mph - N/A   Clear
11:35 AM 50.5 °F - 38.3 °F 63% 30.01 in 10.0 mi NW 12.7 mph - N/A   Clear
11:55 AM 51.1 °F - 37.9 °F 61% 30.00 in 10.0 mi NW 10.4 mph 17.3 mph N/A   Scattered Clouds
12:15 PM 51.8 °F - 37.6 °F 58% 29.99 in 10.0 mi NW 11.5 mph 19.6 mph N/A   Scattered Clouds
12:35 PM 51.1 °F - 37.4 °F 60% 29.99 in 10.0 mi WNW 12.7 mph 19.6 mph N/A   Mostly Cloudy
12:55 PM 50.7 °F - 36.9 °F 59% 29.99 in 10.0 mi West 11.5 mph - N/A   Overcast
1:35 PM 52.0 °F - 37.0 °F 57% 29.97 in 10.0 mi WNW 15.0 mph 19.6 mph N/A   Overcast
1:55 PM 52.5 °F - 36.7 °F 55% 29.97 in 10.0 mi WNW 12.7 mph 19.6 mph N/A   Mostly Cloudy
2:15 PM 52.5 °F - 37.0 °F 56% 29.96 in 10.0 mi NW 11.5 mph - N/A   Scattered Clouds
2:55 PM 51.8 °F - 36.9 °F 57% 29.96 in 10.0 mi NW 11.5 mph - N/A   Scattered Clouds
3:15 PM 50.9 °F - 36.9 °F 59% 29.96 in 10.0 mi NW 12.7 mph 18.4 mph N/A   Clear
3:55 PM 50.4 °F - 36.7 °F 59% 29.95 in 10.0 mi NW 9.2 mph - N/A   Clear
4:15 PM 50.0 °F - 36.9 °F 61% 29.95 in 10.0 mi NNW 8.1 mph - N/A   Clear
4:35 PM 48.4 °F - 36.7 °F 64% 29.95 in 10.0 mi NNW 5.8 mph - N/A   Clear
5:15 PM 43.7 °F - 35.1 °F 72% 29.94 in 10.0 mi Calm Calm - N/A   Clear
5:35 PM 42.8 °F - 34.7 °F 73% 29.94 in 7.0 mi Calm Calm - N/A   Clear
5:55 PM 41.9 °F - 34.9 °F 76% 29.94 in 10.0 mi Calm Calm - N/A   Clear
6:15 PM 39.6 °F - 34.2 °F 81% 29.94 in 10.0 mi Calm Calm - N/A   Clear
6:35 PM 39.2 °F - 35.1 °F 85% 29.94 in 7.0 mi Calm Calm - N/A   Clear
6:55 PM 37.9 °F - 34.2 °F 86% 29.94 in 7.0 mi Calm Calm - N/A   Clear
7:15 PM 36.9 °F - 33.4 °F 87% 29.94 in 7.0 mi Calm Calm - N/A   Clear
7:55 PM 35.2 °F - 32.7 °F 91% 29.93 in 7.0 mi Calm Calm - N/A   Clear
8:15 PM 34.7 °F - 32.0 °F 90% 29.92 in 10.0 mi Calm Calm - N/A   Clear
8:35 PM 33.8 °F - 32.0 °F 93% 29.92 in 10.0 mi Calm Calm - N/A   Clear
8:55 PM 34.9 °F - 32.4 °F 91% 29.91 in 10.0 mi Calm Calm - N/A   Clear
9:15 PM 34.5 °F 31.6 °F 32.4 °F 92% 29.90 in 10.0 mi SE 3.5 mph - N/A   Clear
9:35 PM 34.7 °F - 32.9 °F 93% 29.90 in 10.0 mi Calm Calm - N/A   Clear
10:15 PM 34.0 °F - 32.0 °F 92% 29.89 in 10.0 mi Calm Calm - N/A   Clear
10:35 PM 36.7 °F - 33.4 °F 88% 29.89 in 10.0 mi Calm Calm - N/A   Clear
10:55 PM 34.2 °F - 32.2 °F 92% 29.87 in 10.0 mi Calm Calm - N/A   Clear
11:15 PM 34.5 °F - 31.8 °F 90% 29.87 in 10.0 mi Calm Calm - N/A   Clear
11:35 PM 34.5 °F - 32.5 °F 92% 29.87 in 10.0 mi Calm Calm - N/A   Clear
11:55 PM 31.8 °F - 29.8 °F 92% 29.87 in 10.0 mi Calm Calm - N/A   Clear